Loading...
Mariscal Sucre International Airport

SEQM

Code AITA: UIO

Quito, Ecuador

24.0°

Rosée: 4.0

Vitesse du vent

5 kt

Direction: 130° /

Altimètre

30.24 Hg

QNH : 1024

SEQM 191700Z 13005KT 9999 SCT040 24/04 Q1024 NOSIG RMK A3025


Mariscal Sucre International Airport

Élévation

2386.0 mètres

Ville

Quito

Localisation

Pichincha

Pays

Ecuador

Nouvelle recherche